Farnsworth, Texas
Current Conditions -  °F | °C
As of 1:55 PM on Thursday 18 Dec 2014 (Local Time) from KPYX Reporting Station
Overcast Overcast  
Wind Chill: 32°   Ceiling: 500
Heat Index: 37°   Visibility: 7mi
Dew Point: 37°   Wind: 7mph
Humidity: 97%   Direction: 360°N
Pressure: 30.09"   Gusts: NA
Location:  36.32°N, 100.97°W
Report Text: KPYX 181955Z AUTO 36006KT 7SM OVC005 03/03 A3009 RMK AO2 T00300025
Loading
Personal Weather Stations






























Interactive Weather Map New forecast layout! Learn more

10-Day Weather Forecast

Advertisements
Track Severe Weather on mobile